Tiempo atmosférico en la estación meteorológica de La Oliva, Las Palmas (217 m.)



Fecha
DESCASC
Temp. máxima en grados centígrados (hora)
DESCASC
Temp. mínima en grados centígrados (hora)
DESCASC
Temp. media en grados centígrados
DESCASC
Racha de viento máxima en m/sg (hora)
DESCASC
Velocidad máxima media en intervalos de 10 minutos(hora)
DESCASC
Precipitaciones diarias en mm
DESCASC
Precipitaciones de 00:00 a 06:00 en mm
DESCASC
Precipitaciones de 06:00 a 12:00 en mm
DESCASC
Precipitaciones de 12:00 a 18:00 en mm
DESCASC
Precipitaciones de 18:00 a 24:00 en mm
DESCASC
22-01-2020 19.1 (14:10) 7.7 (07:20) 13.4 10 (20:50) 4.72 (14:30) 7 0 0 0 7
21-01-2020 17.6 (13:20) 9.5 (23:00) 13.6 8.33 (14:30) 4.72 (11:10) 0 0 0 0 0
20-01-2020 17.8 (13:00) 13.5 (07:30) 15.6 11.94 (15:10) 6.39 (15:10) 0 0 0 0 0
19-01-2020 20.1 (13:00) 14.1 (00:00) 17.1 9.72 (14:40) 6.39 (13:20) 0 0 0 0 0
18-01-2020 20.2 (15:10) 12.9 (00:00) 16.6 10.28 (09:30) 6.39 (09:40) 0 0 0 0 0
17-01-2020 18.8 (13:30) 9.8 (00:00) 14.3 11.67 (14:40) 7.78 (14:30) 0 0 0 0 0
16-01-2020 20.1 (12:00) 11.3 (00:00) 15.7 7.78 (10:10) 5.28 (11:00) 0 0 0 0 0
15-01-2020 19.2 (15:50) 9.9 (00:00) 14.6 11.67 (11:30) 7.78 (11:30) 0 0 0 0 0
14-01-2020 20.6 (16:00) 10.7 (00:00) 15.7 15.28 (06:10) 8.61 (11:00) 0 0 0 0 0
13-01-2020 20.4 (15:20) 12.8 (00:00) 16.6 14.17 (13:50) 9.44 (13:40) 0 0 0 0 0
12-01-2020 18.4 (13:40) 13.4 (00:00) 15.9 10.83 (15:20) 6.67 (14:50) 0 0 0 0 0
11-01-2020 17.4 (12:50) 14.4 (00:00) 15.9 10.28 (10:00) 6.39 (10:00) 0 0 0 0 0
10-01-2020 18.2 (13:40) 14.8 (00:00) 16.5 11.67 (13:10) 7.78 (13:50) 0 0 0 0 0
09-01-2020 18.5 (13:40) 11 (00:00) 14.8 10 (17:50) 5.83 (17:50) 0 0 0 0 0
08-01-2020 18.5 (13:20) 9.6 (00:00) 14.1 8.06 (15:50) 4.72 (15:30) 0 0 0 0 0
07-01-2020 18.9 (13:50) 12.3 (00:00) 15.6 8.89 (03:30) 5.28 (04:30) 0 0 0 0 0
06-01-2020 18.9 (13:20) 12.8 (00:00) 15.8 9.17 (16:00) 4.72 (09:30) 0.8 0 0 0 0.8
05-01-2020 18.9 (12:30) 10.5 (00:00) 14.7 9.17 (12:00) 5 (11:10) 0 0 0 0 0
04-01-2020 18.5 (15:00) 12.6 (00:00) 15.6 11.67 (03:00) 8.89 (03:00) 0 0 0 0 0
03-01-2020 18 (12:40) 12.7 (00:00) 15.3 11.67 (13:30) 7.22 (12:00) 0 0 0 0 0
02-01-2020 17.1 (15:20) 13.6 (00:00) 15.4 14.44 (04:40) 9.72 (04:00) 0 0 0 0 0
01-01-2020 17.1 (13:00) 13.4 (00:00) 15.3 15.56 (05:30) 10.83 (05:10) 0 0 0 0 0
31-12-2019 20.2 (13:30) 13.5 (00:00) 16.9 11.39 (13:50) 7.5 (13:40) 0 0 0 0 0
30-12-2019 -- (--) -- (--) -- -- (--) -- (--) -- 0 0 0 --
29-12-2019 21 (13:00) 13.2 (00:00) 17.1 13.33 (09:50) 8.61 (10:00) 0 0 0 0 0
28-12-2019 22.2 (13:30) 14.4 (00:00) 18.3 14.44 (12:00) 9.17 (12:00) 0 0 0 0 0
27-12-2019 21.4 (14:00) 15.4 (00:00) 18.4 11.39 (11:30) 7.5 (11:40) 0 0 0 0 0
26-12-2019 20.1 (12:50) 15.8 (00:00) 18 11.11 (01:00) 7.78 (21:40) 0 0 0 0 0
25-12-2019 22.5 (12:30) 16.2 (00:00) 19.4 12.22 (12:00) 8.33 (12:10) 0 0 0 0 0

Gráficas

Temp. máximas Temp. mínimas Temp. medias Precipitaciones Rachas de viento máximas Velocidades máximas media en intervalos de 10 minutos

Datos horarios

Fecha y hora oficial Temperatura (ºC) Velocidad del viento (km/h) Dirección del viento Racha (km/h) Dirección de racha Precipitación (mm) Presión (hPa) Tendencia (hPa) Humedad (%)
2020-01-23 23:00:00 11.9 0 Calma 5 Sudoeste 0 -- -- 84
2020-01-23 22:00:00 12.6 0 Calma 8 Oeste 0 -- -- 82
2020-01-23 21:00:00 13.4 7 Oeste 11 Oeste 0 -- -- 80
2020-01-23 20:00:00 13.9 7 Oeste 11 Oeste 0 -- -- 79
2020-01-23 19:00:00 14.6 8 Oeste 17 Oeste 0 -- -- 77
2020-01-23 18:00:00 16.2 13 Oeste 24 Sudoeste 0 -- -- 67
2020-01-23 17:00:00 17 15 Oeste 24 Sudoeste 0 -- -- 61
2020-01-23 16:00:00 17.8 14 Oeste 27 Oeste 0 -- -- 60
2020-01-23 15:00:00 18.1 17 Oeste 26 Oeste 0 -- -- 58
2020-01-23 14:00:00 18.6 17 Oeste 27 Oeste 0 -- -- 58
2020-01-23 13:00:00 17.8 15 Oeste 25 Oeste 0 -- -- 65
2020-01-23 12:00:00 17.8 14 Oeste 23 Oeste 0 -- -- 66
2020-01-23 11:00:00 16.3 15 Oeste 26 Oeste 0 -- -- 73
2020-01-23 10:00:00 15.4 13 Oeste 20 Oeste 0 -- -- 77
2020-01-23 09:00:00 13.9 13 Oeste 19 Oeste 0 -- -- 84
2020-01-23 08:00:00 12.6 11 Oeste 19 Oeste 0 -- -- 89
2020-01-23 07:00:00 12.3 12 Oeste 25 Sudoeste 0 -- -- 89
2020-01-23 06:00:00 12.5 19 Sudoeste 27 Sudoeste 1 -- -- 89
2020-01-23 05:00:00 11.9 12 Oeste 22 Sudoeste 0.4 -- -- 89
2020-01-23 04:00:00 12.6 14 Sudoeste 21 Sudoeste 0 -- -- 82
2020-01-23 03:00:00 12.7 11 Sudoeste 27 Sudoeste 0 -- -- 81
2020-01-23 02:00:00 12 9 Oeste 22 Sudoeste 0 -- -- 85
2020-01-23 01:00:00 11.8 12 Sudoeste 20 Sudoeste 0 -- -- 89
2020-01-23 00:00:00 12.5 14 Sudoeste 22 Sudoeste 0 -- -- 87
2020-01-22 23:00:00 12.2 7 Sudoeste 30 Oeste 4.2 -- -- 86
2020-01-22 22:00:00 13.2 2 Sur 12 Oeste 0.2 -- -- 83
2020-01-22 21:00:00 12.9 17 Oeste 36 Oeste 2.6 -- -- 83
2020-01-22 20:00:00 14.2 5 Oeste 10 Oeste 0 -- -- 70
2020-01-22 19:00:00 14.6 7 Oeste 19 Oeste 0 -- -- 67
2020-01-22 18:00:00 16.4 14 Oeste 22 Oeste 0 -- -- 61
2020-01-22 17:00:00 17.7 13 Oeste 22 Sudoeste 0 -- -- 53
2020-01-22 16:00:00 18.2 13 Oeste 26 Oeste 0 -- -- 46
2020-01-22 15:00:00 18.8 15 Oeste 26 Oeste 0 -- -- 47
2020-01-22 14:00:00 18.9 15 Oeste 25 Oeste 0 -- -- 49
2020-01-22 13:00:00 18.6 10 Noroeste 21 Oeste 0 -- -- 49
2020-01-22 12:00:00 17.5 12 Oeste 23 Oeste 0 -- -- 59
2020-01-22 11:00:00 16.9 12 Noroeste 18 Noroeste 0 -- -- 61
2020-01-22 10:00:00 15.1 8 Sudoeste 13 Sudoeste 0 -- -- 67
2020-01-22 09:00:00 10 0 Calma 4 Oeste 0 -- -- 85
2020-01-22 08:00:00 8.1 0 Calma 5 Sur 0 -- -- 86
2020-01-22 07:00:00 7.8 0 Calma 5 Oeste 0 -- -- 80
2020-01-22 06:00:00 8.5 3 Oeste 6 Oeste 0 -- -- 82
2020-01-22 05:00:00 8.3 2 Oeste 10 Oeste 0 -- -- 84
2020-01-22 04:00:00 8 4 Oeste 6 Oeste 0 -- -- 84
2020-01-22 03:00:00 8.3 0 Calma -- -- 0 -- -- 82
2020-01-22 02:00:00 8.5 0 Calma 3 Oeste 0 -- -- 80
2020-01-22 01:00:00 9 3 Oeste 4 Oeste 0 -- -- 78
2020-01-22 00:00:00 9.6 3 Noroeste 4 Noroeste 0 -- -- 77
2020-01-21 23:00:00 9.5 3 Oeste 4 Oeste 0 -- -- 78
2020-01-21 22:00:00 10.1 0 Calma 6 Noroeste 0 -- -- 74
2020-01-21 21:00:00 11 3 Noroeste 6 Noroeste 0 -- -- 73
2020-01-21 20:00:00 11.9 4 Noroeste 8 Noroeste 0 -- -- 72
2020-01-21 19:00:00 13.1 6 Noroeste 17 Noroeste 0 -- -- 67
2020-01-21 18:00:00 14.8 12 Noroeste 22 Noroeste 0 -- -- 65
2020-01-21 17:00:00 15.4 11 Norte 26 Noroeste 0 -- -- 58
2020-01-21 16:00:00 16 13 Noroeste 28 Noroeste 0 -- -- 61
2020-01-21 15:00:00 16.1 9 Noroeste 30 Noroeste 0 -- -- 53
2020-01-21 14:00:00 16.3 13 Noroeste 27 Norte 0 -- -- 55
2020-01-21 13:00:00 16 8 Noroeste 22 Noroeste 0 -- -- 55
2020-01-21 12:00:00 14.7 9 Noroeste 27 Noroeste 0 -- -- 62
2020-01-21 11:00:00 14.2 16 Noroeste 27 Noroeste 0 -- -- 65
2020-01-21 10:00:00 14 9 Norte 18 Norte 0 -- -- 73
2020-01-21 09:00:00 11.8 2 Este 24 Norte 0 -- -- 82
2020-01-21 08:00:00 12.2 8 Noroeste 18 Norte 0 -- -- 78
2020-01-21 07:00:00 12.5 2 Noroeste 12 Noroeste 0 -- -- 67
2020-01-21 06:00:00 13 5 Noroeste 18 Norte 0 -- -- 72
2020-01-21 05:00:00 13.2 11 Noroeste 20 Noroeste 0 -- -- 66
2020-01-21 04:00:00 13.1 8 Noroeste 17 Noroeste 0 -- -- 51
2020-01-21 03:00:00 13.5 9 Noroeste 19 Noroeste 0 -- -- 59
2020-01-21 02:00:00 13.7 8 Noroeste 23 Norte 0 -- -- 59
2020-01-21 01:00:00 13.9 8 Norte 21 Norte 0 -- -- 53
2020-01-21 00:00:00 13.9 12 Noroeste 24 Noroeste 0 -- -- 56
2020-01-20 23:00:00 13.7 9 Norte 30 Noroeste 0 -- -- 64
2020-01-20 22:00:00 13.9 10 Noroeste 37 Norte 0 -- -- 61
2020-01-20 21:00:00 14.1 14 Noroeste 31 Noroeste 0 -- -- 58
2020-01-20 20:00:00 14.4 17 Norte 39 Norte 0 -- -- 60
2020-01-20 19:00:00 14.4 13 Norte 31 Noroeste 0 -- -- 62
2020-01-20 18:00:00 15.1 16 Norte 33 Noroeste 0 -- -- 59
2020-01-20 17:00:00 15.8 13 Norte 35 Norte 0 -- -- 49
2020-01-20 16:00:00 15.9 22 Norte 43 Nordeste 0 -- -- 50
2020-01-20 15:00:00 16.4 21 Norte 37 Norte 0 -- -- 51
2020-01-20 14:00:00 16 19 Norte 39 Norte 0 -- -- 55
2020-01-20 13:00:00 17.8 16 Norte 37 Norte 0 -- -- 54
2020-01-20 12:00:00 16.5 19 Norte 36 Norte 0 -- -- 62
2020-01-20 11:00:00 16.2 15 Norte 35 Noroeste 0 -- -- 59
2020-01-20 10:00:00 15.6 13 Norte 26 Noroeste 0 -- -- 61
2020-01-20 09:00:00 15 13 Norte 32 Norte 0 -- -- 67
2020-01-20 08:00:00 13.8 7 Norte 36 Norte 0 -- -- 77
2020-01-20 07:00:00 14.2 8 Norte 34 Nordeste 0 -- -- 75
2020-01-20 06:00:00 14.6 18 Norte 36 Nordeste 0 -- -- 70
2020-01-20 05:00:00 14.7 13 Norte 38 Norte 0 -- -- 66
2020-01-20 04:00:00 14.5 19 Norte 35 Norte 0 -- -- 62
2020-01-20 03:00:00 14.8 12 Norte 26 Norte 0 -- -- 65
2020-01-20 02:00:00 14.8 14 Norte 28 Noroeste 0 -- -- 66
2020-01-20 01:00:00 14.9 12 Norte 27 Norte 0 -- -- 68
2020-01-20 00:00:00 15.5 15 Norte 29 Norte 0 -- -- 70
2020-01-19 23:00:00 16 17 Norte 30 Norte 0 -- -- 72
2020-01-19 22:00:00 16.2 15 Norte 29 Norte 0 -- -- 73
2020-01-19 21:00:00 16.2 13 Norte 27 Norte 0 -- -- 82
2020-01-19 20:00:00 16.5 15 Norte 28 Norte 0 -- -- 76
2020-01-19 19:00:00 17.1 15 Nordeste 26 Nordeste 0 -- -- 76
2020-01-19 18:00:00 17.2 13 Nordeste 25 Nordeste 0 -- -- 77
2020-01-19 17:00:00 18 15 Nordeste 28 Este 0 -- -- 71
2020-01-19 16:00:00 19 18 Nordeste 28 Nordeste 0 -- -- 69
2020-01-19 15:00:00 19.2 21 Nordeste 35 Nordeste 0 -- -- 64
2020-01-19 14:00:00 20 18 Nordeste 32 Este 0 -- -- 47
2020-01-19 13:00:00 20.1 21 Nordeste 34 Nordeste 0 -- -- 49
2020-01-19 12:00:00 19.1 18 Este 33 Nordeste 0 -- -- 59
2020-01-19 11:00:00 18.2 15 Este 28 Nordeste 0 -- -- 67
2020-01-19 10:00:00 16.5 19 Nordeste 32 Este 0 -- -- 78
2020-01-19 09:00:00 15.2 17 Este 28 Este 0 -- -- 84
2020-01-19 08:00:00 14.3 16 Este 26 Este 0 -- -- 88
2020-01-19 07:00:00 14.1 14 Este 21 Este 0 -- -- 89
2020-01-19 06:00:00 14.2 10 Este 26 Este 0 -- -- 88
2020-01-19 05:00:00 14.4 12 Este 21 Este 0 -- -- 88
2020-01-19 04:00:00 14.2 9 Este 20 Este 0 -- -- 86
2020-01-19 03:00:00 14.3 10 Este 21 Este 0 -- -- 73
2020-01-19 02:00:00 14.8 11 Este 18 Este 0 -- -- 59
2020-01-19 01:00:00 15.3 10 Este 17 Este 0 -- -- 35
2020-01-19 00:00:00 15.1 9 Este 16 Este 0 -- -- 37
2020-01-18 23:00:00 14 8 Sudeste 12 Nordeste 0 -- -- 47
2020-01-18 22:00:00 14.4 6 Este 15 Este 0 -- -- 82
2020-01-18 21:00:00 15 7 Este 15 Este 0 -- -- 78
2020-01-18 20:00:00 15.5 8 Este 18 Nordeste 0 -- -- 69
2020-01-18 19:00:00 16.4 8 Este 19 Este 0 -- -- 51
2020-01-18 18:00:00 18.3 11 Este 26 Este 0 -- -- 44
2020-01-18 17:00:00 19.4 16 Este 27 Este 0 -- -- 38
2020-01-18 16:00:00 19.9 17 Este 30 Este 0 -- -- 39
2020-01-18 15:00:00 20 21 Este 32 Este 0 -- -- 36
2020-01-18 14:00:00 19.9 22 Este 33 Este 0 -- -- 49
2020-01-18 13:00:00 19.5 20 Este 33 Este 0 -- -- 54
2020-01-18 12:00:00 18.8 21 Este 31 Este 0 -- -- 60
2020-01-18 11:00:00 17.7 19 Este 31 Este 0 -- -- 73
2020-01-18 10:00:00 16.3 22 Este 37 Este 0 -- -- 82
2020-01-18 09:00:00 14.7 23 Este 34 Este 0 -- -- 91
2020-01-18 08:00:00 13.9 14 Este 27 Este 0 -- -- 91
2020-01-18 07:00:00 13.8 15 Este 27 Este 0 -- -- 90
2020-01-18 06:00:00 14 13 Este 23 Este 0 -- -- 90
2020-01-18 05:00:00 13.8 13 Este 22 Este 0 -- -- 90
2020-01-18 04:00:00 14.1 14 Este 23 Este 0 -- -- 88
2020-01-18 03:00:00 13.8 12 Este 19 Este 0 -- -- 87
2020-01-18 02:00:00 13.4 8 Este 21 Este 0 -- -- 88
2020-01-18 01:00:00 13 6 Este 13 Sudeste 0 -- -- 85
2020-01-18 00:00:00 13.2 8 Sudeste 11 Este 0 -- -- 76
2020-01-17 23:00:00 13.7 6 Este 17 Sudeste 0 -- -- 82
2020-01-17 22:00:00 13.9 9 Sudeste 16 Sudeste 0 -- -- 80
2020-01-17 21:00:00 14.1 10 Este 20 Este 0 -- -- 79
2020-01-17 20:00:00 14.5 13 Este 22 Nordeste 0 -- -- 76
2020-01-17 19:00:00 15.1 15 Este 23 Este 0 -- -- 72
2020-01-17 18:00:00 16.5 16 Este 29 Este 0 -- -- 64
2020-01-17 17:00:00 17.7 19 Este 32 Este 0 -- -- 56
2020-01-17 16:00:00 18.1 19 Este 39 Este 0 -- -- 55
2020-01-17 15:00:00 18.5 28 Este 42 Este 0 -- -- 54
2020-01-17 14:00:00 18.7 19 Este 34 Este 0 -- -- 51
2020-01-17 13:00:00 18.5 22 Este 37 Este 0 -- -- 52
2020-01-17 12:00:00 18.1 22 Este 37 Este 0 -- -- 55
2020-01-17 11:00:00 17.3 24 Este 37 Este 0 -- -- 58
2020-01-17 10:00:00 16.5 18 Este 31 Este 0 -- -- 64
2020-01-17 09:00:00 14.4 13 Este 23 Este 0 -- -- 70
2020-01-17 08:00:00 13.1 13 Este 26 Este 0 -- -- 75
2020-01-17 07:00:00 13 11 Este 27 Este 0 -- -- 77
2020-01-17 06:00:00 13.1 14 Este 24 Este 0 -- -- 76
2020-01-17 05:00:00 12.9 13 Este 23 Este 0 -- -- 73
2020-01-17 04:00:00 11.9 9 Este 17 Este 0 -- -- 75
2020-01-17 03:00:00 9.9 6 Este 8 Este 0 -- -- 77
2020-01-17 02:00:00 10.3 5 Este 7 Este 0 -- -- 71
2020-01-17 01:00:00 10.8 3 Nordeste 10 Este 0 -- -- 65
2020-01-17 00:00:00 11.3 4 Este 8 Nordeste 0 -- -- 66
2020-01-16 23:00:00 12.4 6 Este 10 Este 0 -- -- 65
2020-01-16 22:00:00 13.4 7 Este 17 Este 0 -- -- 60
2020-01-16 21:00:00 13.3 6 Este 12 Este 0 -- -- 62
2020-01-16 20:00:00 13.9 4 Nordeste 15 Este 0 -- -- 60
2020-01-16 19:00:00 14.9 10 Este 16 Este 0 -- -- 60
2020-01-16 18:00:00 17.3 10 Este 19 Sudeste 0 -- -- 41
2020-01-16 17:00:00 18.5 13 Este 21 Sudeste 0 -- -- 32
2020-01-16 16:00:00 19.1 14 Este 25 Este 0 -- -- 31
2020-01-16 15:00:00 19.2 14 Este 26 Este 0 -- -- 37
2020-01-16 14:00:00 19.5 15 Este 25 Este 0 -- -- 42
2020-01-16 13:00:00 19.6 16 Sudeste 28 Sudeste 0 -- -- 38
2020-01-16 12:00:00 20.1 16 Sudeste 28 Sudeste 0 -- -- 29
2020-01-16 11:00:00 18.5 19 Sudeste 28 Sudeste 0 -- -- 32
2020-01-16 10:00:00 17.4 18 Sudeste 27 Sudeste 0 -- -- 35
2020-01-16 09:00:00 15 11 Sudeste 24 Este 0 -- -- 48
2020-01-16 08:00:00 13.7 14 Este 25 Sudeste 0 -- -- 54
2020-01-16 07:00:00 13.6 13 Este 22 Sudeste 0 -- -- 54
2020-01-16 06:00:00 13.6 14 Este 22 Sudeste 0 -- -- 56
2020-01-16 05:00:00 13.3 13 Este 21 Este 0 -- -- 70
2020-01-16 04:00:00 13.4 13 Sudeste 19 Sudeste 0 -- -- 71
2020-01-16 03:00:00 11.8 9 Este 13 Este 0 -- -- 81
2020-01-16 02:00:00 11.5 8 Este 11 Este 0 -- -- 83
2020-01-16 01:00:00 12.2 7 Este 12 Este 0 -- -- 79
2020-01-16 00:00:00 13.4 11 Este 18 Este 0 -- -- 75
2020-01-15 23:00:00 13.1 10 Este 15 Este 0 -- -- 73
2020-01-15 22:00:00 13.4 6 Este 15 Este 0 -- -- 68
2020-01-15 21:00:00 13.4 8 Este 13 Este 0 -- -- 64
2020-01-15 20:00:00 13.6 6 Sudeste 15 Este 0 -- -- 58
2020-01-15 19:00:00 15.1 10 Este 18 Este 0 -- -- 51
2020-01-15 18:00:00 17.1 11 Este 17 Este 0 -- -- 41
2020-01-15 17:00:00 18.9 10 Este 22 Sudeste 0 -- -- 32
2020-01-15 16:00:00 19.2 15 Sudeste 27 Sudeste 0 -- -- 30
2020-01-15 15:00:00 19 20 Sudeste 33 Sudeste 0 -- -- 31
2020-01-15 14:00:00 18.7 21 Sudeste 36 Sudeste 0 -- -- 32
2020-01-15 13:00:00 18.7 21 Sudeste 36 Sudeste 0 -- -- 34
2020-01-15 12:00:00 18.2 25 Sudeste 42 Sudeste 0 -- -- 37
2020-01-15 11:00:00 18.2 21 Sudeste 30 Sudeste 0 -- -- 32
2020-01-15 10:00:00 17.2 20 Sudeste 30 Sudeste 0 -- -- 36
2020-01-15 09:00:00 15.3 13 Sudeste 26 Sudeste 0 -- -- 46
2020-01-15 08:00:00 12.8 14 Este 23 Este 0 -- -- 65
2020-01-15 07:00:00 12.9 14 Sudeste 21 Sudeste 0 -- -- 67
2020-01-15 06:00:00 13 12 Este 22 Este 0 -- -- 70
2020-01-15 05:00:00 13.1 13 Sudeste 19 Sudeste 0 -- -- 73
2020-01-15 04:00:00 12.8 11 Este 19 Sudeste 0 -- -- 75
2020-01-15 03:00:00 12.2 10 Este 13 Sudeste 0 -- -- 78
2020-01-15 02:00:00 11.2 9 Este 12 Este 0 -- -- 77
2020-01-15 01:00:00 9.9 5 Sudeste 6 Sudeste 0 -- -- 64
2020-01-15 00:00:00 10.7 3 Sudeste 8 Este 0 -- -- 59
2020-01-14 23:00:00 11.4 6 Este 9 Sudeste 0 -- -- 40
2020-01-14 22:00:00 11.5 4 Este 7 Sudeste 0 -- -- 40
2020-01-14 21:00:00 12.8 5 Nordeste 6 Nordeste 0 -- -- 38
2020-01-14 20:00:00 13.9 4 Sudoeste 8 Sur 0 -- -- 35
2020-01-14 19:00:00 15.8 8 Sur 22 Sur 0 -- -- 32
2020-01-14 18:00:00 17.8 15 Sur 25 Sur 0 -- -- 29
2020-01-14 17:00:00 19.5 17 Sur 32 Sur 0 -- -- 27
2020-01-14 16:00:00 20.6 18 Sur 35 Este 0 -- -- 25
2020-01-14 15:00:00 19.5 24 Sudeste 42 Sudeste 0 -- -- 35
2020-01-14 14:00:00 19.7 22 Sudeste 43 Sudeste 0 -- -- 35
2020-01-14 13:00:00 19.6 17 Sudeste 53 Sudeste 0 -- -- 31
2020-01-14 12:00:00 18.8 23 Sudeste 47 Sudeste 0 -- -- 32
2020-01-14 11:00:00 17.5 31 Sudeste 46 Sudeste 0 -- -- 38
2020-01-14 10:00:00 16.7 30 Sudeste 45 Sudeste 0 -- -- 40
2020-01-14 09:00:00 15.9 24 Sudeste 44 Sudeste 0 -- -- 49
2020-01-14 08:00:00 15.2 22 Sudeste 41 Sudeste 0 -- -- 47
2020-01-14 07:00:00 15.3 21 Sudeste 55 Sudeste 0 -- -- 45
2020-01-14 06:00:00 15.3 22 Sur 45 Sudeste 0 -- -- 43
2020-01-14 05:00:00 15.2 21 Sudeste 35 Sudeste 0 -- -- 44
2020-01-14 04:00:00 13.4 12 Sudeste 18 Este 0 -- -- 67
2020-01-14 03:00:00 13.2 11 Este 18 Sudeste 0 -- -- 69
2020-01-14 02:00:00 12.4 9 Este 14 Este 0 -- -- 78
2020-01-14 01:00:00 12.5 3 Sudeste 11 Este 0 -- -- 81
2020-01-14 00:00:00 13.7 8 Este 15 Sudeste 0 -- -- 80
2020-01-13 23:00:00 13.9 9 Este 15 Este 0 -- -- 76
2020-01-13 22:00:00 14.2 10 Este 21 Este 0 -- -- 74
2020-01-13 21:00:00 14.6 14 Este 23 Este 0 -- -- 73
2020-01-13 20:00:00 15.1 14 Este 26 Este 0 -- -- 70
2020-01-13 19:00:00 15.7 18 Este 32 Este 0 -- -- 66
2020-01-13 18:00:00 17.6 20 Este 40 Sudeste 0 -- -- 47
2020-01-13 17:00:00 19.4 28 Sudeste 43 Sudeste 0 -- -- 26
2020-01-13 16:00:00 19.9 28 Sudeste 44 Sudeste 0 -- -- 27
2020-01-13 15:00:00 19.9 28 Sudeste 50 Sudeste 0 -- -- 27
2020-01-13 14:00:00 19.9 30 Sudeste 51 Sudeste 0 -- -- 32
2020-01-13 13:00:00 18.7 21 Sudeste 37 Sudeste 0 -- -- 39
2020-01-13 12:00:00 17.8 27 Sudeste 44 Sudeste 0 -- -- 40
2020-01-13 11:00:00 17.4 29 Sudeste 45 Sudeste 0 -- -- 43
2020-01-13 10:00:00 16.2 23 Sudeste 36 Sudeste 0 -- -- 49
2020-01-13 09:00:00 14.9 21 Este 34 Sudeste 0 -- -- 52
2020-01-13 08:00:00 14.2 18 Sudeste 26 Sudeste 0 -- -- 57
2020-01-13 07:00:00 12.9 9 Este 15 Este 0 -- -- 76
2020-01-13 06:00:00 13.5 8 Este 14 Este 0 -- -- 79
2020-01-13 05:00:00 14.1 9 Este 18 Este 0 -- -- 78
2020-01-13 04:00:00 14.5 10 Este 22 Este 0 -- -- 80
2020-01-13 03:00:00 14.8 12 Este 23 Nordeste 0 -- -- 78
2020-01-13 02:00:00 15 15 Nordeste 25 Este 0 -- -- 80
2020-01-13 01:00:00 14 7 Nordeste 15 Nordeste 0 -- -- 80
2020-01-13 00:00:00 14.8 13 Nordeste 27 Este 0 -- -- 74
2020-01-12 23:00:00 14.9 19 Este 31 Este 0 -- -- 71
2020-01-12 22:00:00 14.5 14 Este 23 Este 0 -- -- 69
2020-01-12 21:00:00 14.3 8 Este 17 Este 0 -- -- 66
2020-01-12 20:00:00 14.8 10 Este 18 Este 0 -- -- 62
2020-01-12 19:00:00 15 11 Este 25 Nordeste 0 -- -- 63
2020-01-12 18:00:00 16.1 15 Este 36 Este 0 -- -- 54
2020-01-12 17:00:00 17.1 24 Este 39 Este 0 -- -- 46
2020-01-12 16:00:00 17.6 23 Este 39 Este 0 -- -- 42
2020-01-12 15:00:00 18.1 22 Este 38 Nordeste 0 -- -- 52
2020-01-12 14:00:00 18.2 22 Este 39 Este 0 -- -- 50
2020-01-12 13:00:00 18.1 19 Este 37 Este 0 -- -- 47
2020-01-12 12:00:00 17.8 20 Este 32 Nordeste 0 -- -- 54
2020-01-12 11:00:00 17.2 18 Nordeste 31 Este 0 -- -- 60
2020-01-12 10:00:00 16.4 18 Nordeste 30 Nordeste 0 -- -- 64
2020-01-12 09:00:00 14.9 14 Nordeste 24 Nordeste 0 -- -- 72
2020-01-12 08:00:00 13.4 3 Este 12 Este 0 -- -- 76
2020-01-12 07:00:00 14.9 5 Nordeste 19 Nordeste 0 -- -- 69
2020-01-12 06:00:00 15 12 Nordeste 20 Nordeste 0 -- -- 69
2020-01-12 05:00:00 15 12 Nordeste 25 Nordeste 0 -- -- 67
2020-01-12 04:00:00 15 6 Norte 15 Norte 0 -- -- 67
2020-01-12 03:00:00 15 7 Nordeste 17 Nordeste 0 -- -- 67
2020-01-12 02:00:00 15 13 Nordeste 22 Nordeste 0 -- -- 66
2020-01-12 01:00:00 14.9 8 Nordeste 22 Nordeste 0 -- -- 66
2020-01-12 00:00:00 15.1 7 Nordeste 26 Nordeste 0 -- -- 67
2020-01-11 23:00:00 15.1 14 Nordeste 22 Nordeste 0 -- -- 65
2020-01-11 22:00:00 15.3 9 Norte 27 Norte 0 -- -- 65
2020-01-11 21:00:00 15.5 15 Norte 32 Norte 0 -- -- 65
2020-01-11 20:00:00 15.7 16 Norte 29 Nordeste 0 -- -- 69
2020-01-11 19:00:00 15.6 15 Norte 29 Norte 0 -- -- 65
2020-01-11 18:00:00 15.7 13 Norte 30 Norte 0 -- -- 73
2020-01-11 17:00:00 16.1 17 Norte 31 Norte 0 -- -- 68
2020-01-11 16:00:00 15.8 14 Norte 35 Norte 0 -- -- 71
2020-01-11 15:00:00 16.6 16 Norte 31 Noroeste 0 -- -- 67
2020-01-11 14:00:00 17.4 13 Norte 30 Norte 0 -- -- 58
2020-01-11 13:00:00 17.2 16 Norte 30 Nordeste 0 -- -- 60
2020-01-11 12:00:00 17 14 Nordeste 26 Nordeste 0 -- -- 62
2020-01-11 11:00:00 16.8 16 Nordeste 33 Nordeste 0 -- -- 60
2020-01-11 10:00:00 16.2 23 Nordeste 37 Nordeste 0 -- -- 61
2020-01-11 09:00:00 15.4 12 Norte 20 Norte 0 -- -- 70
2020-01-11 08:00:00 14.5 11 Norte 22 Nordeste 0 -- -- 70
2020-01-11 07:00:00 14.8 6 Nordeste 21 Nordeste 0 -- -- 68
2020-01-11 06:00:00 15 11 Norte 24 Nordeste 0 -- -- 65
2020-01-11 05:00:00 15.1 9 Nordeste 26 Norte 0 -- -- 66
2020-01-11 04:00:00 15.1 9 Nordeste 21 Nordeste 0 -- -- 68
2020-01-11 03:00:00 15.1 11 Norte 22 Norte 0 -- -- 68
2020-01-11 02:00:00 15.1 13 Norte 24 Norte 0 -- -- 73
2020-01-11 01:00:00 15.4 13 Norte 26 Norte 0 -- -- 75
2020-01-11 00:00:00 15.2 11 Norte 17 Norte 0 -- -- 78
2020-01-10 23:00:00 15.7 8 Norte 18 Nordeste 0 -- -- 79
2020-01-10 22:00:00 15.8 9 Nordeste 17 Nordeste 0 -- -- 80
2020-01-10 21:00:00 15.7 10 Norte 17 Norte 0 -- -- 80
2020-01-10 20:00:00 15.3 9 Norte 18 Norte 0 -- -- 74
2020-01-10 19:00:00 16.3 5 Norte 24 Nordeste 0 -- -- 70
2020-01-10 18:00:00 17.4 15 Nordeste 33 Nordeste 0 -- -- 65
2020-01-10 17:00:00 17.6 20 Nordeste 33 Nordeste 0 -- -- 65
2020-01-10 16:00:00 17.8 26 Nordeste 36 Nordeste 0 -- -- 66
2020-01-10 15:00:00 17.9 23 Nordeste 39 Nordeste 0 -- -- 65
2020-01-10 14:00:00 18.1 27 Nordeste 42 Nordeste 0 -- -- 65
2020-01-10 13:00:00 18 23 Nordeste 40 Nordeste 0 -- -- 68
2020-01-10 12:00:00 17.5 23 Nordeste 35 Nordeste 0 -- -- 69
2020-01-10 11:00:00 16.8 19 Nordeste 35 Norte 0 -- -- 74
2020-01-10 10:00:00 16.1 17 Nordeste 32 Norte 0 -- -- 81
2020-01-10 09:00:00 15.4 14 Nordeste 30 Nordeste 0 -- -- 87
2020-01-10 08:00:00 15 18 Nordeste 40 Nordeste 0 -- -- 89
2020-01-10 07:00:00 15.1 19 Nordeste 39 Norte 0 -- -- 87
2020-01-10 06:00:00 15.1 17 Nordeste 29 Nordeste 0 -- -- 90
2020-01-10 05:00:00 15.6 18 Nordeste 31 Nordeste 0 -- -- 84
2020-01-10 04:00:00 16.1 16 Nordeste 26 Nordeste 0 -- -- 74
2020-01-10 03:00:00 15.8 15 Nordeste 26 Nordeste 0 -- -- 77
2020-01-10 02:00:00 15.8 13 Nordeste 22 Nordeste 0 -- -- 74
2020-01-10 01:00:00 15.7 13 Nordeste 24 Nordeste 0 -- -- 77
2020-01-10 00:00:00 15.4 9 Nordeste 22 Nordeste 0 -- -- 73
2020-01-09 23:00:00 15 7 Nordeste 18 Norte 0 -- -- 72
2020-01-09 22:00:00 15.2 10 Norte 24 Norte 0 -- -- 70
2020-01-09 21:00:00 15.6 15 Nordeste 31 Norte 0 -- -- 68
2020-01-09 20:00:00 15.7 17 Norte 35 Nordeste 0 -- -- 69
2020-01-09 19:00:00 15.9 17 Norte 33 Norte 0 -- -- 67
2020-01-09 18:00:00 16.5 19 Norte 36 Norte 0 -- -- 64
2020-01-09 17:00:00 17.7 15 Norte 34 Norte 0 -- -- 60
2020-01-09 16:00:00 17.9 18 Norte 35 Noroeste 0 -- -- 59
2020-01-09 15:00:00 18 17 Norte 34 Norte 0 -- -- 59
2020-01-09 14:00:00 18 17 Norte 32 Norte 0 -- -- 61
2020-01-09 13:00:00 18 15 Norte 31 Norte 0 -- -- 60
2020-01-09 12:00:00 17.7 12 Norte 27 Norte 0 -- -- 57
2020-01-09 11:00:00 17.6 18 Nordeste 29 Nordeste 0 -- -- 57
2020-01-09 10:00:00 15.9 10 Nordeste 20 Nordeste 0 -- -- 68
2020-01-09 09:00:00 13.5 7 Nordeste 14 Norte 0 -- -- 76
2020-01-09 08:00:00 12.1 0 Calma 6 Sudeste 0 -- -- 82
2020-01-09 07:00:00 11.6 3 Sur 5 Sur 0 -- -- 80
2020-01-09 06:00:00 11.8 3 Sur 12 Nordeste 0 -- -- 80
2020-01-09 05:00:00 11.2 0 Calma 5 Este 0 -- -- 86
2020-01-09 04:00:00 11.4 0 Calma 10 Este 0 -- -- 82
2020-01-09 03:00:00 11.3 5 Sudeste 8 Sur 0 -- -- 84
2020-01-09 02:00:00 11.9 3 Sudeste 5 Sudeste 0 -- -- 82
2020-01-09 01:00:00 11.4 3 Sudeste 7 Este 0 -- -- 84
2020-01-09 00:00:00 12.2 4 Este 12 Nordeste 0 -- -- 79
2020-01-08 23:00:00 12.6 2 Sudeste 4 Sudeste 0 -- -- 80
2020-01-08 22:00:00 13.1 0 Calma 13 Nordeste 0 -- -- 76
2020-01-08 21:00:00 14.4 8 Nordeste 18 Norte 0 -- -- 71
2020-01-08 20:00:00 15.1 10 Norte 22 Norte 0 -- -- 72
2020-01-08 19:00:00 15.5 5 Nordeste 18 Nordeste 0 -- -- 68
2020-01-08 18:00:00 16.3 10 Nordeste 25 Nordeste 0 -- -- 68
2020-01-08 17:00:00 17.4 15 Nordeste 26 Nordeste 0 -- -- 65
2020-01-08 16:00:00 17.4 12 Nordeste 29 Nordeste 0 -- -- 67
2020-01-08 15:00:00 18 16 Nordeste 26 Nordeste 0 -- -- 63
2020-01-08 14:00:00 18.1 12 Nordeste 23 Nordeste 0 -- -- 62
2020-01-08 13:00:00 17.9 13 Nordeste 23 Este 0 -- -- 62
2020-01-08 12:00:00 17.6 15 Nordeste 26 Nordeste 0 -- -- 65
2020-01-08 11:00:00 16.9 17 Nordeste 28 Nordeste 0 -- -- 68
2020-01-08 10:00:00 15.6 13 Nordeste 20 Nordeste 0 -- -- 75
2020-01-08 09:00:00 12.3 6 Sudeste 9 Este 0 -- -- 88
2020-01-08 08:00:00 9.7 5 Este 7 Este 0 -- -- 89
2020-01-08 07:00:00 9.7 2 Este 6 Este 0 -- -- 89
2020-01-08 06:00:00 10.5 5 Este 8 Este 0 -- -- 88
2020-01-08 05:00:00 10.8 0 Calma 8 Nordeste 0 -- -- 87
2020-01-08 04:00:00 12 0 Calma 7 Sur 0 -- -- 85
2020-01-08 03:00:00 12.9 2 Nordeste 13 Nordeste 0 -- -- 83
2020-01-08 02:00:00 13.3 6 Este 16 Nordeste 0 -- -- 83
2020-01-08 01:00:00 13.7 7 Nordeste 19 Nordeste 0 -- -- 81
2020-01-08 00:00:00 13.5 5 Nordeste 16 Nordeste 0 -- -- 81
2020-01-07 23:00:00 14 10 Nordeste 17 Nordeste 0 -- -- 80
2020-01-07 22:00:00 13.6 6 Nordeste 17 Nordeste 0 -- -- 80
2020-01-07 21:00:00 14.4 12 Nordeste 17 Nordeste 0 -- -- 79
2020-01-07 20:00:00 14.8 8 Nordeste 21 Nordeste 0 -- -- 77
2020-01-07 19:00:00 15.4 12 Nordeste 21 Nordeste 0 -- -- 77
2020-01-07 18:00:00 16.4 10 Este 22 Este 0 -- -- 56
2020-01-07 17:00:00 17.7 14 Este 30 Este 0 -- -- 56
2020-01-07 16:00:00 18.1 17 Este 31 Sudeste 0 -- -- 62
2020-01-07 15:00:00 18.3 18 Este 30 Este 0 -- -- 60
2020-01-07 14:00:00 18.9 18 Nordeste 30 Nordeste 0 -- -- 54
2020-01-07 13:00:00 18.6 16 Nordeste 31 Nordeste 0 -- -- 60
2020-01-07 12:00:00 18 17 Nordeste 31 Nordeste 0 -- -- 67
2020-01-07 11:00:00 16.8 17 Nordeste 28 Nordeste 0 -- -- 71
2020-01-07 10:00:00 16 16 Nordeste 26 Nordeste 0 -- -- 73
2020-01-07 09:00:00 14.8 13 Este 26 Nordeste 0 -- -- 76
2020-01-07 08:00:00 14.4 15 Este 32 Nordeste 0 -- -- 74
2020-01-07 07:00:00 14.2 16 Nordeste 30 Este 0 -- -- 75
2020-01-07 06:00:00 14 15 Nordeste 30 Nordeste 0 -- -- 74
2020-01-07 05:00:00 14.1 18 Nordeste 29 Este 0 -- -- 74
2020-01-07 04:00:00 13.9 15 Nordeste 32 Este 0 -- -- 73
2020-01-07 03:00:00 12.8 5 Nordeste 13 Nordeste 0 -- -- 82
2020-01-07 02:00:00 12.5 7 Nordeste 10 Nordeste 0 -- -- 81
2020-01-07 01:00:00 13.6 4 Nordeste 23 Este 0 -- -- 77
2020-01-07 00:00:00 13.7 12 Nordeste 27 Nordeste 0 -- -- 82
2020-01-06 23:00:00 13.3 5 Este 7 Este 0 -- -- 78
2020-01-06 22:00:00 13.4 3 Este 6 Este 0 -- -- 77
2020-01-06 21:00:00 13.8 4 Este 12 Nordeste 0 -- -- 76
2020-01-06 20:00:00 14.3 8 Nordeste 14 Norte 0 -- -- 77
2020-01-06 19:00:00 14.5 8 Nordeste 33 Nordeste 0.8 -- -- 80
2020-01-06 18:00:00 16.2 14 Norte 28 Norte 0 -- -- 73
2020-01-06 17:00:00 15.8 8 Nordeste 26 Norte 0 -- -- 75
2020-01-06 16:00:00 16.7 15 Norte 33 Norte 0 -- -- 70
2020-01-06 15:00:00 18.1 15 Norte 30 Noroeste 0 -- -- 59
2020-01-06 14:00:00 18.9 9 Norte 27 Noroeste 0 -- -- 56
2020-01-06 13:00:00 18.2 11 Norte 27 Norte 0 -- -- 55
2020-01-06 12:00:00 17.5 13 Norte 25 Norte 0 -- -- 62
2020-01-06 11:00:00 18.1 14 Norte 26 Nordeste 0 -- -- 51
2020-01-06 10:00:00 16.2 10 Norte 28 Norte 0 -- -- 67
2020-01-06 09:00:00 15.4 5 Nordeste 23 Norte 0 -- -- 67